sensor_id;sensor_type;location;lat;lon;timestamp;temperature;humidity
22288;DHT22;11312;51.464;6.968;2023-07-28T00:00:20;17.40;99.90
22288;DHT22;11312;51.464;6.968;2023-07-28T00:02:46;17.30;99.90
22288;DHT22;11312;51.464;6.968;2023-07-28T00:05:12;17.40;99.90
22288;DHT22;11312;51.464;6.968;2023-07-28T00:07:37;17.30;99.90
22288;DHT22;11312;51.464;6.968;2023-07-28T00:10:03;17.30;99.90
22288;DHT22;11312;51.464;6.968;2023-07-28T00:12:29;17.30;99.90
22288;DHT22;11312;51.464;6.968;2023-07-28T00:14:54;17.30;99.90
22288;DHT22;11312;51.464;6.968;2023-07-28T00:17:20;17.30;99.90
22288;DHT22;11312;51.464;6.968;2023-07-28T00:19:45;17.30;99.90
22288;DHT22;11312;51.464;6.968;2023-07-28T00:22:11;17.30;99.90
22288;DHT22;11312;51.464;6.968;2023-07-28T00:24:37;17.30;99.90
22288;DHT22;11312;51.464;6.968;2023-07-28T00:27:03;17.30;99.90
22288;DHT22;11312;51.464;6.968;2023-07-28T00:29:28;17.30;99.90
22288;DHT22;11312;51.464;6.968;2023-07-28T00:31:54;17.30;99.90
22288;DHT22;11312;51.464;6.968;2023-07-28T00:34:20;17.30;99.90
22288;DHT22;11312;51.464;6.968;2023-07-28T00:36:46;17.30;99.90
22288;DHT22;11312;51.464;6.968;2023-07-28T00:39:11;17.30;99.90
22288;DHT22;11312;51.464;6.968;2023-07-28T00:41:37;17.30;99.90
22288;DHT22;11312;51.464;6.968;2023-07-28T00:44:03;17.30;99.90
22288;DHT22;11312;51.464;6.968;2023-07-28T00:46:28;17.30;99.90
22288;DHT22;11312;51.464;6.968;2023-07-28T00:48:55;17.30;99.90
22288;DHT22;11312;51.464;6.968;2023-07-28T00:51:20;17.30;99.90
22288;DHT22;11312;51.464;6.968;2023-07-28T00:53:46;17.30;99.90
22288;DHT22;11312;51.464;6.968;2023-07-28T00:56:12;17.30;99.90
22288;DHT22;11312;51.464;6.968;2023-07-28T00:58:38;17.30;99.90
22288;DHT22;11312;51.464;6.968;2023-07-28T01:01:03;17.30;99.90
22288;DHT22;11312;51.464;6.968;2023-07-28T01:03:29;17.30;99.90
22288;DHT22;11312;51.464;6.968;2023-07-28T01:09:13;17.30;99.90
22288;DHT22;11312;51.464;6.968;2023-07-28T01:12:01;17.40;99.90
22288;DHT22;11312;51.464;6.968;2023-07-28T01:14:32;17.30;99.90
22288;DHT22;11312;51.464;6.968;2023-07-28T01:16:57;17.30;99.90
22288;DHT22;11312;51.464;6.968;2023-07-28T01:19:23;17.40;99.90
22288;DHT22;11312;51.464;6.968;2023-07-28T01:21:57;17.30;99.90
22288;DHT22;11312;51.464;6.968;2023-07-28T01:24:51;17.30;99.90
22288;DHT22;11312;51.464;6.968;2023-07-28T01:27:17;17.30;99.90
22288;DHT22;11312;51.464;6.968;2023-07-28T01:29:43;17.20;99.90
22288;DHT22;11312;51.464;6.968;2023-07-28T01:32:11;17.30;99.90
22288;DHT22;11312;51.464;6.968;2023-07-28T01:34:36;17.30;99.90
22288;DHT22;11312;51.464;6.968;2023-07-28T01:37:02;17.30;99.90
22288;DHT22;11312;51.464;6.968;2023-07-28T01:39:28;17.30;99.90
22288;DHT22;11312;51.464;6.968;2023-07-28T01:41:54;17.30;99.90
22288;DHT22;11312;51.464;6.968;2023-07-28T01:44:19;17.40;99.90
22288;DHT22;11312;51.464;6.968;2023-07-28T01:46:45;17.30;99.90
22288;DHT22;11312;51.464;6.968;2023-07-28T01:49:10;17.30;99.90
22288;DHT22;11312;51.464;6.968;2023-07-28T01:51:36;17.20;99.90
22288;DHT22;11312;51.464;6.968;2023-07-28T01:54:02;17.30;99.90
22288;DHT22;11312;51.464;6.968;2023-07-28T01:56:27;17.30;99.90
22288;DHT22;11312;51.464;6.968;2023-07-28T01:58:53;17.30;99.90
22288;DHT22;11312;51.464;6.968;2023-07-28T02:01:18;17.30;99.90
22288;DHT22;11312;51.464;6.968;2023-07-28T02:03:44;17.40;99.90
22288;DHT22;11312;51.464;6.968;2023-07-28T02:06:10;17.40;99.90
22288;DHT22;11312;51.464;6.968;2023-07-28T02:08:35;17.30;99.90
22288;DHT22;11312;51.464;6.968;2023-07-28T02:11:01;17.30;99.90
22288;DHT22;11312;51.464;6.968;2023-07-28T02:13:26;17.30;99.90
22288;DHT22;11312;51.464;6.968;2023-07-28T02:15:52;17.30;99.90
22288;DHT22;11312;51.464;6.968;2023-07-28T02:18:17;17.40;99.90
22288;DHT22;11312;51.464;6.968;2023-07-28T02:20:43;17.30;99.90
22288;DHT22;11312;51.464;6.968;2023-07-28T02:23:09;17.30;99.90
22288;DHT22;11312;51.464;6.968;2023-07-28T02:25:34;17.40;99.90
22288;DHT22;11312;51.464;6.968;2023-07-28T02:28:00;17.40;99.90
22288;DHT22;11312;51.464;6.968;2023-07-28T02:30:25;17.40;99.90
22288;DHT22;11312;51.464;6.968;2023-07-28T02:32:51;17.40;99.90
22288;DHT22;11312;51.464;6.968;2023-07-28T02:35:16;17.40;99.90
22288;DHT22;11312;51.464;6.968;2023-07-28T02:37:42;17.40;99.90
22288;DHT22;11312;51.464;6.968;2023-07-28T02:40:08;17.40;99.90
22288;DHT22;11312;51.464;6.968;2023-07-28T02:42:34;17.40;99.90
22288;DHT22;11312;51.464;6.968;2023-07-28T02:45:01;17.40;99.90
22288;DHT22;11312;51.464;6.968;2023-07-28T02:47:27;17.40;99.90
22288;DHT22;11312;51.464;6.968;2023-07-28T02:49:53;17.50;99.90
22288;DHT22;11312;51.464;6.968;2023-07-28T02:52:18;17.50;99.90
22288;DHT22;11312;51.464;6.968;2023-07-28T02:54:44;17.40;99.90
22288;DHT22;11312;51.464;6.968;2023-07-28T02:57:09;17.50;99.90
22288;DHT22;11312;51.464;6.968;2023-07-28T02:59:35;17.50;99.90
22288;DHT22;11312;51.464;6.968;2023-07-28T03:02:01;17.50;99.90
22288;DHT22;11312;51.464;6.968;2023-07-28T03:04:26;17.50;99.90
22288;DHT22;11312;51.464;6.968;2023-07-28T03:06:52;17.40;99.90
22288;DHT22;11312;51.464;6.968;2023-07-28T03:09:17;17.50;99.90
22288;DHT22;11312;51.464;6.968;2023-07-28T03:11:43;17.50;99.90
22288;DHT22;11312;51.464;6.968;2023-07-28T03:14:09;17.40;99.90
22288;DHT22;11312;51.464;6.968;2023-07-28T03:16:35;17.40;99.90
22288;DHT22;11312;51.464;6.968;2023-07-28T03:19:00;17.50;99.90
22288;DHT22;11312;51.464;6.968;2023-07-28T03:21:29;17.50;99.90
22288;DHT22;11312;51.464;6.968;2023-07-28T03:23:54;17.50;99.90
22288;DHT22;11312;51.464;6.968;2023-07-28T03:26:20;17.50;99.90
22288;DHT22;11312;51.464;6.968;2023-07-28T03:28:46;17.50;99.90
22288;DHT22;11312;51.464;6.968;2023-07-28T03:31:12;17.50;99.90
22288;DHT22;11312;51.464;6.968;2023-07-28T03:33:37;17.40;99.90
22288;DHT22;11312;51.464;6.968;2023-07-28T03:36:03;17.50;99.90
22288;DHT22;11312;51.464;6.968;2023-07-28T03:38:28;17.40;99.90
22288;DHT22;11312;51.464;6.968;2023-07-28T03:40:54;17.40;99.90
22288;DHT22;11312;51.464;6.968;2023-07-28T03:43:20;17.40;99.90
22288;DHT22;11312;51.464;6.968;2023-07-28T03:45:46;17.40;99.90
22288;DHT22;11312;51.464;6.968;2023-07-28T03:48:12;17.50;99.90
22288;DHT22;11312;51.464;6.968;2023-07-28T03:50:37;17.50;99.90
22288;DHT22;11312;51.464;6.968;2023-07-28T03:53:03;17.50;99.90
22288;DHT22;11312;51.464;6.968;2023-07-28T03:55:28;17.50;99.90
22288;DHT22;11312;51.464;6.968;2023-07-28T03:57:54;17.50;99.90
22288;DHT22;11312;51.464;6.968;2023-07-28T04:00:20;17.50;99.90
22288;DHT22;11312;51.464;6.968;2023-07-28T04:02:45;17.50;99.90
22288;DHT22;11312;51.464;6.968;2023-07-28T04:05:11;17.50;99.90
22288;DHT22;11312;51.464;6.968;2023-07-28T04:07:37;17.50;99.90
22288;DHT22;11312;51.464;6.968;2023-07-28T04:10:04;17.50;99.90
22288;DHT22;11312;51.464;6.968;2023-07-28T04:12:30;17.50;99.90
22288;DHT22;11312;51.464;6.968;2023-07-28T04:14:55;17.60;99.90
22288;DHT22;11312;51.464;6.968;2023-07-28T04:17:21;17.50;99.90
22288;DHT22;11312;51.464;6.968;2023-07-28T04:19:46;17.60;99.90
22288;DHT22;11312;51.464;6.968;2023-07-28T04:22:12;17.50;99.90
22288;DHT22;11312;51.464;6.968;2023-07-28T04:24:38;17.50;99.90
22288;DHT22;11312;51.464;6.968;2023-07-28T04:27:04;17.50;99.90
22288;DHT22;11312;51.464;6.968;2023-07-28T04:29:30;17.60;99.90
22288;DHT22;11312;51.464;6.968;2023-07-28T04:31:56;17.60;99.90
22288;DHT22;11312;51.464;6.968;2023-07-28T04:34:21;17.70;99.90
22288;DHT22;11312;51.464;6.968;2023-07-28T04:36:47;17.60;99.90
22288;DHT22;11312;51.464;6.968;2023-07-28T04:39:12;17.60;99.90
22288;DHT22;11312;51.464;6.968;2023-07-28T04:41:38;17.70;99.90
22288;DHT22;11312;51.464;6.968;2023-07-28T04:44:04;17.60;99.90
22288;DHT22;11312;51.464;6.968;2023-07-28T04:46:30;17.80;99.90
22288;DHT22;11312;51.464;6.968;2023-07-28T04:48:56;17.70;99.90
22288;DHT22;11312;51.464;6.968;2023-07-28T04:51:21;17.80;99.90
22288;DHT22;11312;51.464;6.968;2023-07-28T04:53:47;17.70;99.90
22288;DHT22;11312;51.464;6.968;2023-07-28T04:56:13;17.70;99.90
22288;DHT22;11312;51.464;6.968;2023-07-28T04:58:38;17.70;99.90
22288;DHT22;11312;51.464;6.968;2023-07-28T05:01:04;17.80;99.90
22288;DHT22;11312;51.464;6.968;2023-07-28T05:03:30;17.80;99.90
22288;DHT22;11312;51.464;6.968;2023-07-28T05:05:56;17.80;99.90
22288;DHT22;11312;51.464;6.968;2023-07-28T05:08:22;17.80;99.90
22288;DHT22;11312;51.464;6.968;2023-07-28T05:10:47;17.80;99.90
22288;DHT22;11312;51.464;6.968;2023-07-28T05:13:13;17.90;99.90
22288;DHT22;11312;51.464;6.968;2023-07-28T05:15:38;17.80;99.90
22288;DHT22;11312;51.464;6.968;2023-07-28T05:18:04;17.90;99.90
22288;DHT22;11312;51.464;6.968;2023-07-28T05:20:30;17.80;99.90
22288;DHT22;11312;51.464;6.968;2023-07-28T05:22:56;17.90;99.90
22288;DHT22;11312;51.464;6.968;2023-07-28T05:25:21;17.90;99.90
22288;DHT22;11312;51.464;6.968;2023-07-28T05:27:47;17.90;99.90
22288;DHT22;11312;51.464;6.968;2023-07-28T05:30:13;17.90;99.90
22288;DHT22;11312;51.464;6.968;2023-07-28T05:32:38;18.00;99.90
22288;DHT22;11312;51.464;6.968;2023-07-28T05:35:04;18.00;99.90
22288;DHT22;11312;51.464;6.968;2023-07-28T05:37:30;18.00;99.90
22288;DHT22;11312;51.464;6.968;2023-07-28T05:39:56;18.10;99.90
22288;DHT22;11312;51.464;6.968;2023-07-28T05:42:21;18.10;99.90
22288;DHT22;11312;51.464;6.968;2023-07-28T05:44:47;18.10;99.90
22288;DHT22;11312;51.464;6.968;2023-07-28T05:47:12;18.10;99.90
22288;DHT22;11312;51.464;6.968;2023-07-28T05:49:38;18.10;99.90
22288;DHT22;11312;51.464;6.968;2023-07-28T05:52:04;18.10;99.90
22288;DHT22;11312;51.464;6.968;2023-07-28T05:54:30;18.10;99.90
22288;DHT22;11312;51.464;6.968;2023-07-28T05:56:55;18.10;99.90
22288;DHT22;11312;51.464;6.968;2023-07-28T05:59:21;18.20;99.90
22288;DHT22;11312;51.464;6.968;2023-07-28T06:01:46;18.10;99.90
22288;DHT22;11312;51.464;6.968;2023-07-28T06:04:12;18.20;99.90
22288;DHT22;11312;51.464;6.968;2023-07-28T06:06:38;18.10;99.90
22288;DHT22;11312;51.464;6.968;2023-07-28T06:09:03;18.10;99.90
22288;DHT22;11312;51.464;6.968;2023-07-28T06:11:29;18.00;99.90
22288;DHT22;11312;51.464;6.968;2023-07-28T06:13:55;18.20;99.90
22288;DHT22;11312;51.464;6.968;2023-07-28T06:16:20;18.30;99.90
22288;DHT22;11312;51.464;6.968;2023-07-28T06:18:46;18.30;99.90
22288;DHT22;11312;51.464;6.968;2023-07-28T06:21:11;18.30;99.90
22288;DHT22;11312;51.464;6.968;2023-07-28T06:23:37;18.40;99.90
22288;DHT22;11312;51.464;6.968;2023-07-28T06:26:03;18.30;99.90
22288;DHT22;11312;51.464;6.968;2023-07-28T06:28:28;18.40;99.90
22288;DHT22;11312;51.464;6.968;2023-07-28T06:30:54;18.30;99.90
22288;DHT22;11312;51.464;6.968;2023-07-28T06:33:28;18.40;99.90
22288;DHT22;11312;51.464;6.968;2023-07-28T06:35:54;18.40;99.90
22288;DHT22;11312;51.464;6.968;2023-07-28T06:38:19;18.30;99.90
22288;DHT22;11312;51.464;6.968;2023-07-28T06:40:45;18.30;99.90
22288;DHT22;11312;51.464;6.968;2023-07-28T06:43:11;18.30;99.90
22288;DHT22;11312;51.464;6.968;2023-07-28T06:45:36;18.40;99.90
22288;DHT22;11312;51.464;6.968;2023-07-28T06:48:02;18.40;99.90
22288;DHT22;11312;51.464;6.968;2023-07-28T06:50:28;18.40;99.90
22288;DHT22;11312;51.464;6.968;2023-07-28T06:52:54;18.60;99.90
22288;DHT22;11312;51.464;6.968;2023-07-28T06:55:19;18.70;99.90
22288;DHT22;11312;51.464;6.968;2023-07-28T06:57:47;18.70;99.90
22288;DHT22;11312;51.464;6.968;2023-07-28T07:00:13;18.70;99.90
22288;DHT22;11312;51.464;6.968;2023-07-28T07:02:40;18.80;99.90
22288;DHT22;11312;51.464;6.968;2023-07-28T07:05:06;18.90;99.90
22288;DHT22;11312;51.464;6.968;2023-07-28T07:07:32;18.90;99.90
22288;DHT22;11312;51.464;6.968;2023-07-28T07:09:58;18.70;99.90
22288;DHT22;11312;51.464;6.968;2023-07-28T07:12:23;18.70;99.90
22288;DHT22;11312;51.464;6.968;2023-07-28T07:14:49;19.00;99.90
22288;DHT22;11312;51.464;6.968;2023-07-28T07:17:14;19.20;99.90
22288;DHT22;11312;51.464;6.968;2023-07-28T07:19:40;19.10;99.90
22288;DHT22;11312;51.464;6.968;2023-07-28T07:22:06;19.40;99.90
22288;DHT22;11312;51.464;6.968;2023-07-28T07:24:32;19.50;99.90
22288;DHT22;11312;51.464;6.968;2023-07-28T07:26:58;19.50;99.90
22288;DHT22;11312;51.464;6.968;2023-07-28T07:29:24;19.50;99.90
22288;DHT22;11312;51.464;6.968;2023-07-28T07:31:49;19.30;99.90
22288;DHT22;11312;51.464;6.968;2023-07-28T07:34:20;19.70;99.90
22288;DHT22;11312;51.464;6.968;2023-07-28T07:36:46;19.90;99.90
22288;DHT22;11312;51.464;6.968;2023-07-28T07:39:11;19.80;99.90
22288;DHT22;11312;51.464;6.968;2023-07-28T07:41:37;19.90;99.90
22288;DHT22;11312;51.464;6.968;2023-07-28T07:44:02;20.00;99.90
22288;DHT22;11312;51.464;6.968;2023-07-28T07:46:28;20.20;99.90
22288;DHT22;11312;51.464;6.968;2023-07-28T07:48:54;20.00;99.90
22288;DHT22;11312;51.464;6.968;2023-07-28T07:51:19;20.10;99.90
22288;DHT22;11312;51.464;6.968;2023-07-28T07:53:45;20.00;99.90
22288;DHT22;11312;51.464;6.968;2023-07-28T07:56:11;19.70;99.90
22288;DHT22;11312;51.464;6.968;2023-07-28T07:58:37;19.80;99.90
22288;DHT22;11312;51.464;6.968;2023-07-28T08:01:02;20.10;99.90
22288;DHT22;11312;51.464;6.968;2023-07-28T08:03:28;20.00;99.90
22288;DHT22;11312;51.464;6.968;2023-07-28T08:05:54;19.70;99.90
22288;DHT22;11312;51.464;6.968;2023-07-28T08:08:20;19.80;99.90
22288;DHT22;11312;51.464;6.968;2023-07-28T08:10:46;19.80;99.90
22288;DHT22;11312;51.464;6.968;2023-07-28T08:13:13;19.90;99.90
22288;DHT22;11312;51.464;6.968;2023-07-28T08:15:38;19.90;99.90
22288;DHT22;11312;51.464;6.968;2023-07-28T08:18:04;19.70;99.90
22288;DHT22;11312;51.464;6.968;2023-07-28T08:20:30;19.90;99.90
22288;DHT22;11312;51.464;6.968;2023-07-28T08:22:55;20.10;99.90
22288;DHT22;11312;51.464;6.968;2023-07-28T08:25:21;20.00;99.90
22288;DHT22;11312;51.464;6.968;2023-07-28T08:27:49;19.90;99.90
22288;DHT22;11312;51.464;6.968;2023-07-28T08:30:14;19.90;99.90
22288;DHT22;11312;51.464;6.968;2023-07-28T08:32:41;20.30;99.90
22288;DHT22;11312;51.464;6.968;2023-07-28T08:35:07;20.40;99.90
22288;DHT22;11312;51.464;6.968;2023-07-28T08:37:33;20.20;99.90
22288;DHT22;11312;51.464;6.968;2023-07-28T08:39:59;20.20;99.90
22288;DHT22;11312;51.464;6.968;2023-07-28T08:42:25;20.20;99.90
22288;DHT22;11312;51.464;6.968;2023-07-28T08:44:50;20.30;99.90
22288;DHT22;11312;51.464;6.968;2023-07-28T08:47:18;20.50;99.90
22288;DHT22;11312;51.464;6.968;2023-07-28T08:49:44;20.80;99.90
22288;DHT22;11312;51.464;6.968;2023-07-28T08:52:10;20.20;99.90
22288;DHT22;11312;51.464;6.968;2023-07-28T08:54:35;20.30;99.90
22288;DHT22;11312;51.464;6.968;2023-07-28T08:57:01;20.30;99.90
22288;DHT22;11312;51.464;6.968;2023-07-28T08:59:28;20.30;99.90
22288;DHT22;11312;51.464;6.968;2023-07-28T09:01:55;20.50;99.90
22288;DHT22;11312;51.464;6.968;2023-07-28T09:04:22;21.00;99.90
22288;DHT22;11312;51.464;6.968;2023-07-28T09:06:48;21.20;99.90
22288;DHT22;11312;51.464;6.968;2023-07-28T09:09:16;21.10;99.90
22288;DHT22;11312;51.464;6.968;2023-07-28T09:11:50;21.40;99.90
22288;DHT22;11312;51.464;6.968;2023-07-28T09:14:19;20.80;99.90
22288;DHT22;11312;51.464;6.968;2023-07-28T09:16:46;20.90;99.90
22288;DHT22;11312;51.464;6.968;2023-07-28T09:19:12;20.90;99.90
22288;DHT22;11312;51.464;6.968;2023-07-28T09:21:40;20.20;99.90
22288;DHT22;11312;51.464;6.968;2023-07-28T09:24:10;20.20;99.90
22288;DHT22;11312;51.464;6.968;2023-07-28T09:26:46;20.40;99.90
22288;DHT22;11312;51.464;6.968;2023-07-28T09:29:13;20.30;99.90
22288;DHT22;11312;51.464;6.968;2023-07-28T09:31:40;20.30;99.90
22288;DHT22;11312;51.464;6.968;2023-07-28T09:34:09;20.10;99.90
22288;DHT22;11312;51.464;6.968;2023-07-28T09:36:36;20.30;99.90
22288;DHT22;11312;51.464;6.968;2023-07-28T09:39:07;20.10;99.90
22288;DHT22;11312;51.464;6.968;2023-07-28T09:41:38;20.10;99.90
22288;DHT22;11312;51.464;6.968;2023-07-28T09:44:04;20.50;99.90
22288;DHT22;11312;51.464;6.968;2023-07-28T09:46:33;21.10;99.90
22288;DHT22;11312;51.464;6.968;2023-07-28T09:49:04;21.10;99.90
22288;DHT22;11312;51.464;6.968;2023-07-28T09:51:31;21.00;99.90
22288;DHT22;11312;51.464;6.968;2023-07-28T09:54:05;21.40;99.90
22288;DHT22;11312;51.464;6.968;2023-07-28T09:56:31;21.70;99.90
22288;DHT22;11312;51.464;6.968;2023-07-28T09:58:58;21.80;99.90
22288;DHT22;11312;51.464;6.968;2023-07-28T10:01:25;23.40;99.90
22288;DHT22;11312;51.464;6.968;2023-07-28T10:03:51;22.70;99.90
22288;DHT22;11312;51.464;6.968;2023-07-28T10:06:17;22.20;99.90
22288;DHT22;11312;51.464;6.968;2023-07-28T10:08:44;22.10;99.90
22288;DHT22;11312;51.464;6.968;2023-07-28T10:11:12;21.50;99.90
22288;DHT22;11312;51.464;6.968;2023-07-28T10:13:41;21.50;99.90
22288;DHT22;11312;51.464;6.968;2023-07-28T10:16:08;21.60;99.90
22288;DHT22;11312;51.464;6.968;2023-07-28T10:18:35;21.70;99.90
22288;DHT22;11312;51.464;6.968;2023-07-28T10:21:09;22.10;99.90
22288;DHT22;11312;51.464;6.968;2023-07-28T10:23:39;21.90;99.90
22288;DHT22;11312;51.464;6.968;2023-07-28T10:26:04;21.50;99.90
22288;DHT22;11312;51.464;6.968;2023-07-28T10:28:37;21.40;99.90
22288;DHT22;11312;51.464;6.968;2023-07-28T10:31:08;21.60;99.90
22288;DHT22;11312;51.464;6.968;2023-07-28T10:33:41;21.50;99.90
22288;DHT22;11312;51.464;6.968;2023-07-28T10:36:33;21.30;99.90
22288;DHT22;11312;51.464;6.968;2023-07-28T10:39:13;21.50;99.90
22288;DHT22;11312;51.464;6.968;2023-07-28T10:41:40;21.30;99.90
22288;DHT22;11312;51.464;6.968;2023-07-28T10:44:07;21.40;99.90
22288;DHT22;11312;51.464;6.968;2023-07-28T10:46:35;21.70;99.90
22288;DHT22;11312;51.464;6.968;2023-07-28T10:49:05;21.50;99.90
22288;DHT22;11312;51.464;6.968;2023-07-28T10:51:30;21.60;99.90
22288;DHT22;11312;51.464;6.968;2023-07-28T10:54:00;21.70;99.90
22288;DHT22;11312;51.464;6.968;2023-07-28T10:56:26;21.90;99.90
22288;DHT22;11312;51.464;6.968;2023-07-28T10:59:02;22.20;99.90
22288;DHT22;11312;51.464;6.968;2023-07-28T11:01:37;22.20;99.90
22288;DHT22;11312;51.464;6.968;2023-07-28T11:04:17;22.70;99.90
22288;DHT22;11312;51.464;6.968;2023-07-28T11:06:45;22.70;99.90
22288;DHT22;11312;51.464;6.968;2023-07-28T11:09:11;22.80;99.90
22288;DHT22;11312;51.464;6.968;2023-07-28T11:11:38;22.50;99.90
22288;DHT22;11312;51.464;6.968;2023-07-28T11:14:08;22.50;99.90
22288;DHT22;11312;51.464;6.968;2023-07-28T11:16:35;22.50;99.90
22288;DHT22;11312;51.464;6.968;2023-07-28T11:19:08;22.70;99.90
22288;DHT22;11312;51.464;6.968;2023-07-28T11:21:38;22.40;99.90
22288;DHT22;11312;51.464;6.968;2023-07-28T11:24:05;22.30;99.90
22288;DHT22;11312;51.464;6.968;2023-07-28T11:26:31;22.20;99.90
22288;DHT22;11312;51.464;6.968;2023-07-28T11:28:59;22.30;99.90
22288;DHT22;11312;51.464;6.968;2023-07-28T11:31:25;22.30;99.90
22288;DHT22;11312;51.464;6.968;2023-07-28T11:33:52;22.10;99.90
22288;DHT22;11312;51.464;6.968;2023-07-28T11:36:26;22.20;99.90
22288;DHT22;11312;51.464;6.968;2023-07-28T11:38:53;22.00;99.90
22288;DHT22;11312;51.464;6.968;2023-07-28T11:41:20;22.00;99.90
22288;DHT22;11312;51.464;6.968;2023-07-28T11:43:48;21.90;99.90
22288;DHT22;11312;51.464;6.968;2023-07-28T11:46:39;21.80;99.90
22288;DHT22;11312;51.464;6.968;2023-07-28T11:51:40;21.50;99.90
22288;DHT22;11312;51.464;6.968;2023-07-28T11:54:10;21.10;99.90
22288;DHT22;11312;51.464;6.968;2023-07-28T11:56:37;20.60;99.90
22288;DHT22;11312;51.464;6.968;2023-07-28T11:59:03;20.70;99.90
22288;DHT22;11312;51.464;6.968;2023-07-28T12:01:29;20.70;99.90
22288;DHT22;11312;51.464;6.968;2023-07-28T12:03:55;21.00;99.90
22288;DHT22;11312;51.464;6.968;2023-07-28T12:06:20;21.80;99.90
22288;DHT22;11312;51.464;6.968;2023-07-28T12:08:46;22.30;99.90
22288;DHT22;11312;51.464;6.968;2023-07-28T12:11:13;22.80;99.90
22288;DHT22;11312;51.464;6.968;2023-07-28T12:13:52;23.70;99.90
22288;DHT22;11312;51.464;6.968;2023-07-28T12:16:40;24.30;99.90
22288;DHT22;11312;51.464;6.968;2023-07-28T12:19:09;24.30;99.90
22288;DHT22;11312;51.464;6.968;2023-07-28T12:21:34;24.60;99.90
22288;DHT22;11312;51.464;6.968;2023-07-28T12:24:00;24.70;99.90
22288;DHT22;11312;51.464;6.968;2023-07-28T12:26:25;25.30;99.90
22288;DHT22;11312;51.464;6.968;2023-07-28T12:28:51;25.90;99.90
22288;DHT22;11312;51.464;6.968;2023-07-28T12:31:17;26.20;99.90
22288;DHT22;11312;51.464;6.968;2023-07-28T12:33:42;26.60;99.90
22288;DHT22;11312;51.464;6.968;2023-07-28T12:36:08;25.70;99.90
22288;DHT22;11312;51.464;6.968;2023-07-28T12:38:33;25.90;99.90
22288;DHT22;11312;51.464;6.968;2023-07-28T12:40:59;26.30;99.90
22288;DHT22;11312;51.464;6.968;2023-07-28T12:43:24;25.90;99.90
22288;DHT22;11312;51.464;6.968;2023-07-28T12:45:51;26.00;99.90
22288;DHT22;11312;51.464;6.968;2023-07-28T12:48:18;26.10;99.90
22288;DHT22;11312;51.464;6.968;2023-07-28T12:50:44;26.00;99.90
22288;DHT22;11312;51.464;6.968;2023-07-28T12:53:10;25.30;99.90
22288;DHT22;11312;51.464;6.968;2023-07-28T12:55:35;25.70;99.90
22288;DHT22;11312;51.464;6.968;2023-07-28T12:58:02;26.70;99.90
22288;DHT22;11312;51.464;6.968;2023-07-28T13:00:28;26.50;99.90
22288;DHT22;11312;51.464;6.968;2023-07-28T13:02:54;26.10;99.90
22288;DHT22;11312;51.464;6.968;2023-07-28T13:05:19;26.00;99.90
22288;DHT22;11312;51.464;6.968;2023-07-28T13:07:45;26.40;99.90
22288;DHT22;11312;51.464;6.968;2023-07-28T13:10:11;26.60;99.90
22288;DHT22;11312;51.464;6.968;2023-07-28T13:12:37;25.60;99.90
22288;DHT22;11312;51.464;6.968;2023-07-28T13:15:04;25.80;99.90
22288;DHT22;11312;51.464;6.968;2023-07-28T13:17:29;25.20;99.90
22288;DHT22;11312;51.464;6.968;2023-07-28T13:19:55;26.30;99.90
22288;DHT22;11312;51.464;6.968;2023-07-28T13:22:23;25.90;99.90
22288;DHT22;11312;51.464;6.968;2023-07-28T13:24:48;25.60;99.90
22288;DHT22;11312;51.464;6.968;2023-07-28T13:27:14;25.30;99.90
22288;DHT22;11312;51.464;6.968;2023-07-28T13:29:39;24.90;99.90
22288;DHT22;11312;51.464;6.968;2023-07-28T13:32:18;24.90;99.90
22288;DHT22;11312;51.464;6.968;2023-07-28T13:34:47;25.40;99.90
22288;DHT22;11312;51.464;6.968;2023-07-28T13:37:13;25.60;99.90
22288;DHT22;11312;51.464;6.968;2023-07-28T13:39:39;26.20;99.90
22288;DHT22;11312;51.464;6.968;2023-07-28T13:42:04;25.20;99.90
22288;DHT22;11312;51.464;6.968;2023-07-28T13:44:30;24.70;99.90
22288;DHT22;11312;51.464;6.968;2023-07-28T13:46:56;24.30;99.90
22288;DHT22;11312;51.464;6.968;2023-07-28T13:49:21;24.10;99.90
22288;DHT22;11312;51.464;6.968;2023-07-28T13:51:47;24.10;99.90
22288;DHT22;11312;51.464;6.968;2023-07-28T13:54:13;24.80;99.90
22288;DHT22;11312;51.464;6.968;2023-07-28T13:56:38;24.90;99.90
22288;DHT22;11312;51.464;6.968;2023-07-28T13:59:04;24.50;99.90
22288;DHT22;11312;51.464;6.968;2023-07-28T14:01:30;24.10;99.90
22288;DHT22;11312;51.464;6.968;2023-07-28T14:03:56;24.00;99.90
22288;DHT22;11312;51.464;6.968;2023-07-28T14:06:22;23.80;99.90
22288;DHT22;11312;51.464;6.968;2023-07-28T14:08:47;23.60;99.90
22288;DHT22;11312;51.464;6.968;2023-07-28T14:11:13;23.60;99.90
22288;DHT22;11312;51.464;6.968;2023-07-28T14:13:39;23.80;99.90
22288;DHT22;11312;51.464;6.968;2023-07-28T14:16:05;23.90;99.90
22288;DHT22;11312;51.464;6.968;2023-07-28T14:18:30;24.10;99.90
22288;DHT22;11312;51.464;6.968;2023-07-28T14:20:56;24.80;99.90
22288;DHT22;11312;51.464;6.968;2023-07-28T14:23:27;25.00;99.90
22288;DHT22;11312;51.464;6.968;2023-07-28T14:25:53;25.20;99.90
22288;DHT22;11312;51.464;6.968;2023-07-28T14:28:19;25.30;99.90
22288;DHT22;11312;51.464;6.968;2023-07-28T14:30:45;25.30;99.90
22288;DHT22;11312;51.464;6.968;2023-07-28T14:33:15;24.90;99.90
22288;DHT22;11312;51.464;6.968;2023-07-28T14:35:43;24.80;99.90
22288;DHT22;11312;51.464;6.968;2023-07-28T14:38:09;24.70;99.90
22288;DHT22;11312;51.464;6.968;2023-07-28T14:40:35;24.60;99.90
22288;DHT22;11312;51.464;6.968;2023-07-28T14:43:02;24.30;99.90
22288;DHT22;11312;51.464;6.968;2023-07-28T14:45:28;24.40;99.90
22288;DHT22;11312;51.464;6.968;2023-07-28T14:47:53;24.30;99.90
22288;DHT22;11312;51.464;6.968;2023-07-28T14:50:19;24.00;99.90
22288;DHT22;11312;51.464;6.968;2023-07-28T14:52:45;24.00;99.90
22288;DHT22;11312;51.464;6.968;2023-07-28T14:55:10;23.80;99.90
22288;DHT22;11312;51.464;6.968;2023-07-28T14:57:36;23.80;99.90
22288;DHT22;11312;51.464;6.968;2023-07-28T15:00:02;23.60;99.90
22288;DHT22;11312;51.464;6.968;2023-07-28T15:02:28;23.40;99.90
22288;DHT22;11312;51.464;6.968;2023-07-28T15:04:54;23.30;99.90
22288;DHT22;11312;51.464;6.968;2023-07-28T15:07:19;23.40;99.90
22288;DHT22;11312;51.464;6.968;2023-07-28T15:09:48;23.20;99.90
22288;DHT22;11312;51.464;6.968;2023-07-28T15:12:13;23.10;99.90
22288;DHT22;11312;51.464;6.968;2023-07-28T15:14:39;22.80;99.90
22288;DHT22;11312;51.464;6.968;2023-07-28T15:17:05;22.70;99.90
22288;DHT22;11312;51.464;6.968;2023-07-28T15:19:30;22.50;99.90
22288;DHT22;11312;51.464;6.968;2023-07-28T15:21:56;22.50;99.90
22288;DHT22;11312;51.464;6.968;2023-07-28T15:24:22;22.30;99.90
22288;DHT22;11312;51.464;6.968;2023-07-28T15:26:48;22.10;99.90
22288;DHT22;11312;51.464;6.968;2023-07-28T15:29:15;22.20;99.90
22288;DHT22;11312;51.464;6.968;2023-07-28T15:31:41;22.20;99.90